createdAt,value
2023-05-13T00:02:45.845Z,93.62
2023-05-13T00:07:48.086Z,94.36
2023-05-13T00:12:50.244Z,90.15
2023-05-13T00:17:52.428Z,93.79
2023-05-13T00:22:54.608Z,93.50
2023-05-13T00:27:56.788Z,92.75
2023-05-13T00:32:59.092Z,95.70
2023-05-13T00:38:01.354Z,93.13
2023-05-13T00:43:03.949Z,96.22
2023-05-13T00:48:08.548Z,96.54
2023-05-13T00:53:12.688Z,93.42
2023-05-13T00:58:14.998Z,95.36
2023-05-13T01:03:32.608Z,94.29
2023-05-13T01:09:19.857Z,94.16
2023-05-13T01:14:35.751Z,92.80
2023-05-13T01:19:56.045Z,100.00
2023-05-13T01:24:58.557Z,98.77
2023-05-13T01:30:01.071Z,92.67
2023-05-13T01:35:08.611Z,96.40
2023-05-13T01:40:30.916Z,91.19
2023-05-13T01:45:39.285Z,98.07
2023-05-13T01:50:41.698Z,95.44
2023-05-13T01:55:44.436Z,94.13
2023-05-13T02:00:46.785Z,96.29
2023-05-13T02:05:49.226Z,94.88
2023-05-13T02:11:01.209Z,90.89
2023-05-13T02:16:05.596Z,93.57
2023-05-13T02:21:08.042Z,93.47
2023-05-13T02:26:10.343Z,96.04
2023-05-13T02:31:12.691Z,95.99
2023-05-13T02:36:16.541Z,93.36
2023-05-13T02:41:19.231Z,94.42
2023-05-13T02:46:23.220Z,93.72
2023-05-13T02:51:25.673Z,95.79
2023-05-13T02:56:28.013Z,93.91
2023-05-13T03:01:31.241Z,95.18
2023-05-13T03:06:33.477Z,92.37
2023-05-13T03:11:36.010Z,91.95
2023-05-13T03:16:38.460Z,87.57
2023-05-13T03:21:40.786Z,92.68
2023-05-13T03:26:46.273Z,92.13
2023-05-13T03:31:49.835Z,95.85
2023-05-13T03:36:52.171Z,89.68
2023-05-13T03:41:54.776Z,96.56
2023-05-13T03:46:57.101Z,88.00
2023-05-13T03:52:00.436Z,85.79
2023-05-13T03:57:03.839Z,86.20
2023-05-13T04:02:06.681Z,98.76
2023-05-13T04:07:09.154Z,96.01
2023-05-13T04:12:11.554Z,92.72
2023-05-13T04:17:14.752Z,93.45
2023-05-13T04:22:16.877Z,91.61
2023-05-13T04:27:18.973Z,91.87
2023-05-13T04:32:23.240Z,91.58
2023-05-13T04:37:28.723Z,90.67
2023-05-13T04:42:34.769Z,90.73
2023-05-13T04:47:38.446Z,92.60
2023-05-13T04:52:43.071Z,89.81
2023-05-13T04:57:46.050Z,89.21
2023-05-13T05:02:48.537Z,92.92
2023-05-13T05:07:51.077Z,88.05
2023-05-13T05:12:54.893Z,89.98
2023-05-13T05:17:58.527Z,88.64
2023-05-13T05:23:01.949Z,92.24
2023-05-13T05:28:05.895Z,86.14
2023-05-13T05:33:09.804Z,93.27
2023-05-13T05:38:16.142Z,88.02
2023-05-13T05:43:18.484Z,94.87
2023-05-13T05:48:20.658Z,96.04
2023-05-13T05:53:24.995Z,88.47
2023-05-13T05:58:27.528Z,95.63
2023-05-13T06:03:29.935Z,89.47
2023-05-13T06:08:32.600Z,90.81
2023-05-13T06:13:34.880Z,90.03
2023-05-13T06:18:37.621Z,91.15
2023-05-13T06:23:40.115Z,86.30
2023-05-13T06:28:42.264Z,95.59
2023-05-13T06:33:44.374Z,87.40
2023-05-13T06:38:46.532Z,91.10
2023-05-13T06:43:49.143Z,89.31
2023-05-13T06:48:58.102Z,87.09
2023-05-13T06:54:00.827Z,85.45
2023-05-13T06:59:06.026Z,87.48
2023-05-13T07:04:08.462Z,91.12
2023-05-13T07:09:10.626Z,79.60
2023-05-13T07:14:12.794Z,81.79
2023-05-13T07:19:14.940Z,88.33
2023-05-13T07:24:17.282Z,87.92
2023-05-13T07:29:19.456Z,85.59
2023-05-13T07:34:22.002Z,84.36
2023-05-13T07:39:24.528Z,88.67
2023-05-13T07:44:26.720Z,79.18
2023-05-13T07:49:28.937Z,85.90
2023-05-13T07:54:31.031Z,84.51
2023-05-13T07:59:33.307Z,83.89
2023-05-13T08:04:35.669Z,81.55
2023-05-13T08:09:38.360Z,81.91
2023-05-13T08:14:40.584Z,82.85
2023-05-13T08:19:42.989Z,80.45
2023-05-13T08:24:45.148Z,78.06
2023-05-13T08:29:47.247Z,79.95
2023-05-13T08:34:50.679Z,80.61
2023-05-13T08:39:52.879Z,78.28
2023-05-13T08:44:55.545Z,80.18
2023-05-13T08:49:58.211Z,80.48
2023-05-13T08:55:03.549Z,80.44
2023-05-13T09:00:07.153Z,81.95
2023-05-13T09:05:10.763Z,83.05
2023-05-13T09:10:12.961Z,78.54
2023-05-13T09:15:21.617Z,82.46
2023-05-13T09:20:26.204Z,75.81
2023-05-13T09:25:30.065Z,76.15
2023-05-13T09:30:36.860Z,81.18
2023-05-13T09:35:53.705Z,79.13
2023-05-13T09:41:00.570Z,80.39
2023-05-13T09:46:05.352Z,78.65
2023-05-13T09:51:07.806Z,75.88
2023-05-13T09:56:10.699Z,78.41
2023-05-13T10:01:12.933Z,73.72
2023-05-13T10:06:18.351Z,79.95
2023-05-13T10:11:21.681Z,78.72
2023-05-13T10:16:26.102Z,80.84
2023-05-13T10:21:28.825Z,80.10
2023-05-13T10:26:32.535Z,78.56
2023-05-13T10:31:35.551Z,74.25
2023-05-13T10:37:21.753Z,77.25
2023-05-13T10:42:46.206Z,76.50
2023-05-13T10:47:51.792Z,80.07
2023-05-13T10:52:58.738Z,77.27
2023-05-13T10:58:13.597Z,78.72
2023-05-13T11:03:20.013Z,78.46
2023-05-13T11:08:55.759Z,81.24
2023-05-13T11:14:14.259Z,81.95
2023-05-13T11:19:30.403Z,75.84
2023-05-13T11:24:32.805Z,74.69
2023-05-13T11:29:37.558Z,74.26
2023-05-13T11:34:51.674Z,73.70
2023-05-13T11:39:53.975Z,75.06
2023-05-13T11:44:57.533Z,74.69
2023-05-13T11:49:59.804Z,71.84
2023-05-13T11:55:01.989Z,76.26
2023-05-13T12:00:10.543Z,75.83
2023-05-13T12:05:12.770Z,76.81
2023-05-13T12:10:15.819Z,74.21
2023-05-13T12:15:20.962Z,71.62
2023-05-13T12:20:25.171Z,77.41
2023-05-13T12:25:48.456Z,75.00
2023-05-13T12:31:08.335Z,75.80
2023-05-13T12:36:36.128Z,71.97
2023-05-13T12:41:41.142Z,74.40
2023-05-13T12:46:54.730Z,73.58
2023-05-13T12:51:57.357Z,70.20
2023-05-13T12:56:59.542Z,67.98
2023-05-13T13:02:01.673Z,61.75
2023-05-13T13:07:05.132Z,58.07
2023-05-13T13:12:07.642Z,54.98
2023-05-13T13:17:10.140Z,50.92
2023-05-13T13:22:12.314Z,48.59
2023-05-13T13:27:14.450Z,58.30
2023-05-13T13:32:16.628Z,63.38
2023-05-13T13:37:18.893Z,65.88
2023-05-13T13:42:22.220Z,67.21
2023-05-13T13:47:25.810Z,62.24
2023-05-13T13:52:28.870Z,63.38
2023-05-13T13:57:31.002Z,66.19
2023-05-13T14:02:33.501Z,65.62
2023-05-13T14:07:38.532Z,65.78
2023-05-13T14:12:41.141Z,67.45
2023-05-13T14:17:43.767Z,67.93
2023-05-13T14:22:45.945Z,71.00
2023-05-13T14:27:48.038Z,67.82
2023-05-13T14:32:50.238Z,69.57
2023-05-13T14:37:52.537Z,70.83
2023-05-13T14:42:54.740Z,71.62
2023-05-13T14:47:56.985Z,67.75
2023-05-13T14:52:59.626Z,66.06
2023-05-13T14:58:01.975Z,65.46
2023-05-13T15:03:04.587Z,67.19
2023-05-13T15:08:08.559Z,67.65
2023-05-13T15:13:11.065Z,71.33
2023-05-13T15:18:14.563Z,73.08
2023-05-13T15:23:16.859Z,68.49
2023-05-13T15:28:19.207Z,68.29
2023-05-13T15:33:21.743Z,68.19
2023-05-13T15:38:24.129Z,68.18
2023-05-13T15:43:26.444Z,68.51
2023-05-13T15:48:29.373Z,67.60
2023-05-13T15:53:31.691Z,69.02
2023-05-13T15:58:33.865Z,69.91
2023-05-13T16:03:38.372Z,72.18
2023-05-13T16:08:41.223Z,72.38
2023-05-13T16:13:43.687Z,72.11
2023-05-13T16:18:46.012Z,74.02
2023-05-13T16:23:48.154Z,76.97
2023-05-13T16:28:50.432Z,78.72
2023-05-13T16:33:52.857Z,79.07
2023-05-13T16:38:55.036Z,78.51
2023-05-13T16:43:57.139Z,78.09
2023-05-13T16:49:00.153Z,80.68
2023-05-13T16:54:02.790Z,78.34
2023-05-13T16:59:05.058Z,78.50
2023-05-13T17:04:07.172Z,79.51
2023-05-13T17:09:09.816Z,78.54
2023-05-13T17:14:12.273Z,78.98
2023-05-13T17:19:14.639Z,82.14
2023-05-13T17:24:16.919Z,83.29
2023-05-13T17:29:19.205Z,84.55
2023-05-13T17:34:21.559Z,84.07
2023-05-13T17:39:23.725Z,83.98
2023-05-13T17:44:25.921Z,85.09
2023-05-13T17:49:28.014Z,86.62
2023-05-13T17:54:30.569Z,86.05
2023-05-13T17:59:32.721Z,85.01
2023-05-13T18:04:34.900Z,88.14
2023-05-13T18:09:37.145Z,86.34
2023-05-13T18:14:39.611Z,86.03
2023-05-13T18:19:41.918Z,87.21
2023-05-13T18:24:44.379Z,88.35
2023-05-13T18:29:46.826Z,89.22
2023-05-13T18:34:49.019Z,90.85
2023-05-13T18:39:51.493Z,89.88
2023-05-13T18:44:53.674Z,90.66
2023-05-13T18:49:55.916Z,90.00
2023-05-13T18:54:58.162Z,89.62
2023-05-13T19:00:00.397Z,90.00
2023-05-13T19:05:02.554Z,87.89
2023-05-13T19:10:04.994Z,86.07
2023-05-13T19:15:08.075Z,85.49
2023-05-13T19:20:11.316Z,86.82
2023-05-13T19:25:13.447Z,85.64
2023-05-13T19:30:16.282Z,88.78
2023-05-13T19:35:18.773Z,87.95
2023-05-13T19:40:21.087Z,92.55
2023-05-13T19:45:23.947Z,92.86
2023-05-13T19:50:26.201Z,94.51
2023-05-13T19:55:28.318Z,92.77
2023-05-13T20:00:30.480Z,91.37
2023-05-13T20:05:32.643Z,91.15
2023-05-13T20:10:36.870Z,93.45
2023-05-13T20:15:39.520Z,92.27
2023-05-13T20:20:42.080Z,94.80
2023-05-13T20:25:47.257Z,97.85
2023-05-13T20:30:53.496Z,100.00
2023-05-13T20:35:55.892Z,100.00
2023-05-13T20:40:58.059Z,97.12
2023-05-13T20:46:03.007Z,100.00
2023-05-13T20:51:06.208Z,98.13
2023-05-13T20:56:10.208Z,99.81
2023-05-13T21:01:12.807Z,100.00
2023-05-13T21:06:14.945Z,100.00
2023-05-13T21:11:17.909Z,96.21
2023-05-13T21:16:20.042Z,94.75
2023-05-13T21:21:22.189Z,98.83
2023-05-13T21:26:25.425Z,92.43
2023-05-13T21:31:27.672Z,92.92
2023-05-13T21:36:29.809Z,100.00
2023-05-13T21:41:32.154Z,100.00
2023-05-13T21:46:34.776Z,100.00
2023-05-13T21:51:36.908Z,100.00
2023-05-13T21:56:39.602Z,100.00
2023-05-13T22:01:42.179Z,100.00
2023-05-13T22:06:44.334Z,100.00
2023-05-13T22:11:46.441Z,100.00
2023-05-13T22:17:00.967Z,100.00
2023-05-13T22:22:11.018Z,100.00
2023-05-13T22:27:13.245Z,100.00
2023-05-13T22:32:15.445Z,100.00
2023-05-13T22:37:17.530Z,100.00
2023-05-13T22:42:19.657Z,100.00
2023-05-13T22:47:21.809Z,100.00
2023-05-13T22:52:23.990Z,100.00
2023-05-13T22:57:27.351Z,100.00
2023-05-13T23:02:29.492Z,100.00
2023-05-13T23:07:31.588Z,100.00
2023-05-13T23:12:33.631Z,100.00
2023-05-13T23:17:35.870Z,100.00
2023-05-13T23:22:38.747Z,100.00
2023-05-13T23:27:41.341Z,100.00
2023-05-13T23:32:43.748Z,100.00
2023-05-13T23:37:45.808Z,100.00
2023-05-13T23:42:47.932Z,100.00
2023-05-13T23:47:51.036Z,100.00
2023-05-13T23:52:53.267Z,100.00
2023-05-13T23:57:56.077Z,100.00
